createdAt,value
2023-01-30T00:02:05.960Z,0.17
2023-01-30T00:04:34.747Z,0.20
2023-01-30T00:07:02.977Z,0.22
2023-01-30T00:11:30.353Z,0.12
2023-01-30T00:14:00.397Z,0.27
2023-01-30T00:16:32.983Z,0.35
2023-01-30T00:19:04.334Z,0.38
2023-01-30T00:21:33.322Z,0.44
2023-01-30T00:24:02.234Z,0.36
2023-01-30T00:26:30.837Z,0.34
2023-01-30T00:28:59.380Z,0.35
2023-01-30T00:31:31.580Z,0.37
2023-01-30T00:33:59.932Z,0.38
2023-01-30T00:36:28.513Z,0.37
2023-01-30T00:38:58.316Z,0.36
2023-01-30T00:41:46.477Z,0.36
2023-01-30T00:44:33.773Z,0.33
2023-01-30T00:47:09.358Z,0.32
2023-01-30T00:49:38.033Z,0.30
2023-01-30T00:52:08.955Z,0.29
2023-01-30T00:54:37.442Z,0.28
2023-01-30T00:57:05.822Z,0.27
2023-01-30T00:59:34.098Z,0.27
2023-01-30T01:02:02.459Z,0.27
2023-01-30T01:04:30.626Z,0.25
2023-01-30T01:07:04.045Z,0.24
2023-01-30T01:09:32.629Z,0.23
2023-01-30T01:12:01.009Z,0.24
2023-01-30T01:14:29.662Z,0.25
2023-01-30T01:17:00.745Z,0.25
2023-01-30T01:19:29.319Z,0.22
2023-01-30T01:22:01.184Z,0.20
2023-01-30T01:24:29.971Z,0.16
2023-01-30T01:26:58.760Z,0.13
2023-01-30T01:29:27.245Z,0.11
2023-01-30T01:31:55.769Z,0.11
2023-01-30T01:34:24.507Z,0.10
2023-01-30T01:36:54.495Z,0.11
2023-01-30T01:39:43.489Z,0.13
2023-01-30T01:42:14.220Z,0.13
2023-01-30T01:45:04.209Z,0.13
2023-01-30T01:47:33.812Z,0.13
2023-01-30T01:50:03.317Z,0.11
2023-01-30T01:52:31.659Z,0.11
2023-01-30T01:55:03.763Z,0.10
2023-01-30T01:57:53.951Z,0.09
2023-01-30T02:00:22.641Z,0.10
2023-01-30T02:02:59.082Z,0.10
2023-01-30T02:05:31.245Z,0.09
2023-01-30T02:08:04.686Z,0.08
2023-01-30T02:27:51.088Z,0.03
2023-01-30T02:30:47.760Z,0.10
2023-01-30T02:33:22.757Z,0.12
2023-01-30T02:36:30.241Z,0.14
2023-01-30T02:39:23.347Z,0.19
2023-01-30T02:42:32.480Z,0.21
2023-01-30T02:45:26.637Z,0.22
2023-01-30T02:48:02.789Z,0.22
2023-01-30T02:50:35.167Z,0.22
2023-01-30T02:53:04.780Z,0.22
2023-01-30T02:55:34.280Z,0.22
2023-01-30T02:58:03.899Z,0.21
2023-01-30T03:00:44.965Z,0.20
2023-01-30T03:03:46.215Z,0.20
2023-01-30T03:06:17.356Z,0.18
2023-01-30T03:09:01.713Z,0.19
2023-01-30T03:11:39.206Z,0.19
2023-01-30T03:14:13.118Z,0.20
2023-01-30T03:16:41.495Z,0.20
2023-01-30T03:19:11.609Z,0.21
2023-01-30T03:21:42.389Z,0.22
2023-01-30T03:24:11.644Z,0.18
2023-01-30T03:26:45.996Z,0.18
2023-01-30T03:29:16.706Z,0.18
2023-01-30T03:31:45.412Z,0.18
2023-01-30T03:34:14.375Z,0.17
2023-01-30T03:36:43.170Z,0.17
2023-01-30T03:39:11.751Z,0.17
2023-01-30T03:41:40.638Z,0.17
2023-01-30T03:44:09.330Z,0.17
2023-01-30T03:46:37.498Z,0.18
2023-01-30T03:49:05.777Z,0.19
2023-01-30T03:51:34.152Z,0.20
2023-01-30T03:54:03.350Z,0.20
2023-01-30T03:56:32.694Z,0.20
2023-01-30T03:59:01.305Z,0.20
2023-01-30T04:01:36.831Z,0.19
2023-01-30T04:04:05.673Z,0.18
2023-01-30T04:06:35.760Z,0.18
2023-01-30T04:09:06.019Z,0.19
2023-01-30T04:11:42.525Z,0.20
2023-01-30T04:14:11.168Z,0.21
2023-01-30T04:16:48.080Z,0.20
2023-01-30T04:19:47.896Z,0.21
2023-01-30T04:22:16.249Z,0.20
2023-01-30T04:24:44.722Z,0.19
2023-01-30T04:27:13.525Z,0.18
2023-01-30T04:29:52.471Z,0.19
2023-01-30T04:32:26.756Z,0.19
2023-01-30T04:34:55.955Z,0.19
2023-01-30T04:37:25.152Z,0.17
2023-01-30T04:39:53.814Z,0.15
2023-01-30T04:42:22.218Z,0.15
2023-01-30T04:45:09.253Z,0.17
2023-01-30T04:47:38.499Z,0.18
2023-01-30T04:50:06.974Z,0.20
2023-01-30T04:52:35.496Z,0.23
2023-01-30T04:55:05.204Z,0.24
2023-01-30T04:57:34.257Z,0.27
2023-01-30T05:00:02.689Z,0.28
2023-01-30T05:02:35.669Z,0.29
2023-01-30T05:05:06.507Z,0.28
2023-01-30T05:07:34.781Z,0.27
2023-01-30T05:10:04.905Z,0.26
2023-01-30T05:12:35.244Z,0.25
2023-01-30T05:15:03.818Z,0.24
2023-01-30T05:17:34.279Z,0.23
2023-01-30T05:20:02.919Z,0.21
2023-01-30T05:22:31.810Z,0.19
2023-01-30T07:44:59.514Z,0.31
2023-01-30T07:49:42.216Z,0.37
2023-01-30T07:52:10.390Z,0.57
2023-01-30T07:54:38.419Z,0.72
2023-01-30T07:57:59.369Z,0.77
2023-01-30T08:00:31.059Z,0.85
2023-01-30T08:02:59.436Z,0.82
2023-01-30T08:05:27.821Z,0.82
2023-01-30T08:07:56.737Z,0.82
2023-01-30T08:10:25.716Z,0.80
2023-01-30T08:12:55.510Z,0.78
2023-01-30T08:15:24.195Z,0.77
2023-01-30T08:17:57.613Z,0.73
2023-01-30T08:20:28.492Z,0.68
2023-01-30T08:22:56.600Z,0.65
2023-01-30T08:25:27.348Z,0.65
2023-01-30T08:27:58.712Z,0.64
2023-01-30T08:30:27.468Z,0.64
2023-01-30T08:32:55.958Z,0.63
2023-01-30T08:35:24.343Z,0.64
2023-01-30T08:37:52.625Z,0.63
2023-01-30T08:40:21.283Z,0.62
2023-01-30T08:42:49.878Z,0.66
2023-01-30T08:45:18.446Z,0.71
2023-01-30T08:47:46.944Z,0.80
2023-01-30T08:50:15.888Z,0.96
2023-01-30T08:52:44.629Z,1.05
2023-01-30T08:55:13.282Z,1.12
2023-01-30T08:57:46.090Z,1.14
2023-01-30T09:00:15.781Z,1.14
2023-01-30T09:02:47.570Z,1.15
2023-01-30T09:05:18.292Z,1.16
2023-01-30T09:07:46.977Z,1.15
2023-01-30T09:10:15.325Z,1.12
2023-01-30T09:13:05.862Z,1.16
2023-01-30T09:15:35.989Z,1.18
2023-01-30T09:18:05.169Z,1.21
2023-01-30T09:20:34.167Z,1.22
2023-01-30T09:23:05.000Z,1.23
2023-01-30T09:25:34.711Z,1.20
2023-01-30T09:28:03.404Z,1.17
2023-01-30T09:30:31.802Z,1.14
2023-01-30T09:33:00.018Z,1.09
2023-01-30T09:35:28.329Z,1.03
2023-01-30T09:37:56.813Z,0.98
2023-01-30T09:40:28.402Z,0.93
2023-01-30T09:43:19.335Z,0.87
2023-01-30T09:46:00.080Z,0.82
2023-01-30T09:48:39.685Z,0.77
2023-01-30T09:51:26.188Z,0.73
2023-01-30T09:53:57.032Z,0.72
2023-01-30T12:07:19.575Z,1.94
2023-01-30T12:09:54.610Z,2.28
2023-01-30T12:12:43.055Z,2.21
2023-01-30T12:15:25.459Z,2.16
2023-01-30T12:17:56.699Z,2.10
2023-01-30T12:20:51.427Z,2.01
2023-01-30T12:23:32.164Z,1.93
2023-01-30T12:26:26.910Z,1.85
2023-01-30T12:29:00.575Z,1.79
2023-01-30T12:31:55.385Z,1.74
2023-01-30T12:34:27.141Z,1.70
2023-01-30T12:36:58.829Z,1.66
2023-01-30T12:39:33.812Z,1.63
2023-01-30T12:42:35.028Z,1.60
2023-01-30T12:45:22.801Z,1.56
2023-01-30T12:48:10.980Z,1.54
2023-01-30T12:51:00.612Z,1.53
2023-01-30T12:53:41.203Z,1.51
2023-01-30T12:56:28.659Z,1.50
2023-01-30T12:59:21.258Z,1.50
2023-01-30T13:02:08.475Z,1.49
2023-01-30T13:05:03.904Z,1.48
2023-01-30T13:08:14.971Z,1.54
2023-01-30T13:11:02.094Z,1.69
2023-01-30T13:13:35.997Z,1.75
2023-01-30T13:16:19.679Z,1.75
2023-01-30T13:18:56.514Z,1.72
2023-01-30T13:21:44.741Z,1.67
2023-01-30T13:24:19.087Z,1.64
2023-01-30T13:26:47.588Z,1.63
2023-01-30T13:29:36.030Z,1.62
2023-01-30T13:32:06.859Z,1.63
2023-01-30T13:34:44.833Z,1.62
2023-01-30T13:37:18.452Z,1.62
2023-01-30T13:40:01.023Z,1.61
2023-01-30T13:42:32.322Z,1.60
2023-01-30T13:45:00.838Z,1.60
2023-01-30T13:47:48.349Z,1.58
2023-01-30T13:50:17.691Z,1.55
2023-01-30T13:52:55.840Z,1.54
2023-01-30T13:55:50.636Z,1.55
2023-01-30T13:58:57.722Z,1.53
2023-01-30T14:01:28.602Z,1.53
2023-01-30T14:03:56.728Z,1.60
2023-01-30T14:06:33.920Z,1.71
2023-01-30T14:09:19.614Z,1.78
2023-01-30T14:11:50.135Z,1.81
2023-01-30T14:14:18.406Z,1.81
2023-01-30T14:16:58.716Z,1.80
2023-01-30T14:19:33.391Z,1.77
2023-01-30T14:22:26.566Z,1.76
2023-01-30T14:25:23.292Z,1.74
2023-01-30T14:27:56.022Z,1.71
2023-01-30T14:30:35.363Z,1.67
2023-01-30T14:33:24.787Z,1.64
2023-01-30T14:35:59.222Z,1.61
2023-01-30T14:38:37.733Z,1.58
2023-01-30T14:41:06.854Z,1.56
2023-01-30T14:43:41.919Z,1.55
2023-01-30T14:46:19.192Z,1.52
2023-01-30T14:48:50.849Z,1.50
2023-01-30T14:51:19.178Z,1.50
2023-01-30T14:54:17.048Z,1.48
2023-01-30T14:56:56.421Z,1.48
2023-01-30T14:59:43.302Z,1.55
2023-01-30T15:02:14.919Z,1.67
2023-01-30T15:04:43.586Z,1.78
2023-01-30T15:07:20.829Z,1.85
2023-01-30T15:09:56.268Z,1.85
2023-01-30T15:12:34.022Z,1.86
2023-01-30T15:15:43.727Z,1.85
2023-01-30T15:18:16.304Z,1.80
2023-01-30T15:21:03.516Z,1.76
2023-01-30T15:23:54.160Z,1.73
2023-01-30T15:26:44.772Z,1.70
2023-01-30T15:29:31.529Z,1.66
2023-01-30T15:32:01.640Z,1.61
2023-01-30T15:34:31.684Z,1.58
2023-01-30T15:37:00.153Z,1.56
2023-01-30T15:52:23.289Z,1.86
2023-01-30T15:54:53.340Z,2.30
2023-01-30T15:57:25.979Z,2.25
2023-01-30T15:59:54.475Z,2.18
2023-01-30T16:02:25.421Z,2.10
2023-01-30T16:05:25.343Z,2.02
2023-01-30T16:07:59.101Z,1.93
2023-01-30T16:10:29.347Z,1.86
2023-01-30T16:12:58.261Z,1.80
2023-01-30T16:15:36.223Z,1.74
2023-01-30T16:18:36.229Z,1.69
2023-01-30T16:21:09.839Z,1.65
2023-01-30T16:23:42.553Z,1.62
2023-01-30T16:26:22.101Z,1.59
2023-01-30T16:28:50.988Z,1.55
2023-01-30T16:31:19.371Z,1.54
2023-01-30T16:33:51.849Z,1.52
2023-01-30T16:36:19.872Z,1.57
2023-01-30T16:38:49.425Z,1.69
2023-01-30T16:41:39.510Z,1.74
2023-01-30T16:44:10.682Z,1.73
2023-01-30T16:46:42.004Z,1.71
2023-01-30T16:49:20.777Z,1.67
2023-01-30T16:51:49.412Z,1.64
2023-01-30T16:54:24.280Z,1.59
2023-01-30T16:56:54.595Z,1.54
2023-01-30T16:59:30.733Z,1.49
2023-01-30T17:01:59.356Z,1.45
2023-01-30T17:04:32.741Z,1.41
2023-01-30T17:07:04.170Z,1.38
2023-01-30T17:09:44.653Z,1.36
2023-01-30T17:12:25.812Z,1.34
2023-01-30T17:15:17.663Z,1.32
2023-01-30T17:17:47.439Z,1.26
2023-01-30T17:20:16.747Z,1.21
2023-01-30T17:22:46.359Z,1.16
2023-01-30T17:25:24.816Z,1.12
2023-01-30T17:27:53.351Z,1.10
2023-01-30T17:30:22.036Z,1.14
2023-01-30T17:32:50.940Z,1.21
2023-01-30T17:35:19.260Z,1.25
2023-01-30T17:37:59.597Z,1.23
2023-01-30T17:40:42.974Z,1.20
2023-01-30T17:43:13.431Z,1.15
2023-01-30T17:45:42.312Z,1.10
2023-01-30T17:48:12.340Z,1.05
2023-01-30T17:50:41.326Z,1.02
2023-01-30T17:53:09.766Z,0.99
2023-01-30T17:55:38.187Z,0.96
2023-01-30T17:58:06.461Z,0.94
2023-01-30T18:00:34.738Z,0.91
2023-01-30T18:03:03.213Z,0.87
2023-01-30T18:05:32.222Z,0.86
2023-01-30T18:08:01.456Z,0.85
2023-01-30T18:10:29.995Z,0.86
2023-01-30T18:12:58.774Z,0.93
2023-01-30T18:15:27.065Z,1.03
2023-01-30T18:17:56.666Z,1.06
2023-01-30T18:20:24.926Z,1.06
2023-01-30T18:22:53.437Z,1.04
2023-01-30T18:25:22.726Z,1.00
2023-01-30T18:27:51.321Z,0.96
2023-01-30T18:30:20.310Z,0.94
2023-01-30T18:32:53.799Z,0.93
2023-01-30T18:35:22.813Z,0.90
2023-01-30T18:37:52.021Z,0.88
2023-01-30T18:40:20.811Z,0.86
2023-01-30T18:42:49.681Z,0.84
2023-01-30T18:45:18.070Z,0.80
2023-01-30T18:47:52.647Z,0.76
2023-01-30T18:50:21.545Z,0.73
2023-01-30T18:52:50.787Z,0.70
2023-01-30T18:55:20.576Z,0.77
2023-01-30T18:57:49.141Z,0.87
2023-01-30T19:00:19.560Z,0.95
2023-01-30T19:02:53.219Z,0.96
2023-01-30T19:05:21.577Z,0.96
2023-01-30T19:07:49.960Z,0.95
2023-01-30T19:10:20.546Z,0.91
2023-01-30T19:13:08.117Z,0.87
2023-01-30T19:15:36.872Z,0.80
2023-01-30T19:18:05.290Z,0.76
2023-01-30T19:20:33.871Z,0.72
2023-01-30T19:23:02.296Z,0.69
2023-01-30T19:25:30.705Z,0.67
2023-01-30T19:28:18.976Z,0.67
2023-01-30T19:30:47.902Z,0.66
2023-01-30T19:33:16.966Z,0.64
2023-01-30T19:35:45.446Z,0.63
2023-01-30T19:38:13.787Z,0.63
2023-01-30T19:40:42.987Z,0.69
2023-01-30T19:43:14.779Z,0.79
2023-01-30T19:45:43.056Z,0.81
2023-01-30T19:48:11.295Z,0.81
2023-01-30T19:50:40.234Z,0.78
2023-01-30T19:53:08.508Z,0.75
2023-01-30T19:55:37.109Z,0.71
2023-01-30T19:58:05.780Z,0.67
2023-01-30T20:00:34.354Z,0.65
2023-01-30T20:03:02.750Z,0.61
2023-01-30T20:05:32.139Z,0.58
2023-01-30T20:08:00.413Z,0.53
2023-01-30T20:10:32.701Z,0.50
2023-01-30T20:15:05.682Z,0.37
2023-01-30T20:17:34.226Z,0.46
2023-01-30T20:20:02.524Z,0.57
2023-01-30T20:22:33.248Z,0.67
2023-01-30T20:25:01.634Z,0.73
2023-01-30T20:27:30.022Z,0.78
2023-01-30T20:29:58.095Z,0.81
2023-01-30T20:32:26.503Z,0.81
2023-01-30T20:34:54.888Z,0.81
2023-01-30T20:37:23.274Z,0.78
2023-01-30T20:39:51.597Z,0.76
2023-01-30T20:42:20.128Z,0.73
2023-01-30T20:44:48.638Z,0.70
2023-01-30T20:47:16.783Z,0.66
2023-01-30T20:49:45.066Z,0.61
2023-01-30T20:52:13.533Z,0.58
2023-01-30T20:54:41.876Z,0.53
2023-01-30T20:57:10.316Z,0.55
2023-01-30T20:59:38.981Z,0.62
2023-01-30T21:02:07.359Z,0.67
2023-01-30T21:04:35.584Z,0.68
2023-01-30T21:07:04.009Z,0.66
2023-01-30T21:09:36.237Z,0.64
2023-01-30T21:12:05.624Z,0.62
2023-01-30T21:14:34.071Z,0.53
2023-01-30T21:17:02.443Z,0.45
2023-01-30T21:19:31.029Z,0.42
2023-01-30T21:22:04.520Z,0.38
2023-01-30T21:24:33.315Z,0.36
2023-01-30T21:27:01.492Z,0.40
2023-01-30T21:29:32.867Z,0.48
2023-01-30T21:32:01.769Z,0.56
2023-01-30T21:34:30.721Z,0.61
2023-01-30T21:37:17.699Z,0.60
2023-01-30T21:40:04.549Z,0.57
2023-01-30T21:42:51.866Z,0.53
2023-01-30T21:45:21.144Z,0.49
2023-01-30T21:47:51.086Z,0.45
2023-01-30T21:50:19.170Z,0.38
2023-01-30T21:52:47.418Z,0.31
2023-01-30T21:55:15.919Z,0.32
2023-01-30T21:57:44.264Z,0.42
2023-01-30T22:00:13.248Z,0.49
2023-01-30T22:02:41.667Z,0.51
2023-01-30T22:05:10.841Z,0.49
2023-01-30T22:07:40.266Z,0.48
2023-01-30T22:10:09.476Z,0.46
2023-01-30T22:20:04.419Z,0.15
2023-01-30T22:22:32.776Z,0.31
2023-01-30T22:25:02.465Z,0.41
2023-01-30T22:27:30.985Z,0.44
2023-01-30T22:30:00.292Z,0.44
2023-01-30T22:32:29.703Z,0.43
2023-01-30T22:34:58.248Z,0.40
2023-01-30T22:37:26.574Z,0.37
2023-01-30T22:39:55.541Z,0.32
2023-01-30T22:42:24.021Z,0.30
2023-01-30T22:44:52.297Z,0.27
2023-01-30T22:47:20.746Z,0.30
2023-01-30T22:49:50.338Z,0.37
2023-01-30T22:52:21.119Z,0.51
2023-01-30T22:54:49.669Z,0.53
2023-01-30T22:57:18.281Z,0.51
2023-01-30T22:59:46.770Z,0.46
2023-01-30T23:02:14.843Z,0.40
2023-01-30T23:04:43.021Z,0.37
2023-01-30T23:07:14.465Z,0.34
2023-01-30T23:09:43.467Z,0.31
2023-01-30T23:12:30.684Z,0.31
2023-01-30T23:14:59.352Z,0.32
2023-01-30T23:17:48.018Z,0.38
2023-01-30T23:20:16.740Z,0.41
2023-01-30T23:22:45.193Z,0.40
2023-01-30T23:25:13.670Z,0.40
2023-01-30T23:27:41.987Z,0.39
2023-01-30T23:30:11.039Z,0.39
2023-01-30T23:32:39.921Z,0.40
2023-01-30T23:35:08.523Z,0.35
2023-01-30T23:37:56.246Z,0.40
2023-01-30T23:40:24.444Z,0.45
2023-01-30T23:42:53.415Z,0.48
2023-01-30T23:45:22.131Z,0.45
2023-01-30T23:47:51.447Z,0.41
2023-01-30T23:50:19.642Z,0.39
2023-01-30T23:52:47.950Z,0.34
2023-01-30T23:55:16.373Z,0.31
2023-01-30T23:57:44.810Z,0.39
